Portada
METAR-TAF:

METAR-TAF

Aeroports :

Nebraska City Municipal Airport

Nebraska City, Nebraska, Estats Units d'Amèrica

latitud: 40-36N, longitud: 095-51W, altitud: 354 m

Observació

L'informe es va fer fa 18 minuts, a les 17:55 UTC
Vent 15 kt del Sud/Sud-Est amb ràfegues de 23 kt
Temperatura 25°C
Humitat 69%
Pressió 1012 hPa
Visibilitat: 16.1 km
Cel clar

METAR: KAFK 151755Z AUTO 16015G23KT 10SM CLR 25/19 A2989 RMK AO2 60011 T02530189 10253 20190

Hora: 13:13 (18:13 UTC)


TAF: manca

Observacions i pronòstics meteorològics de més de 4000 aeroports (METAR i TAF).

Les estacions disponibles són els punts grocs i vermells al mapa.

Posi el ratolí al punt desitjat per veure el nom de l'estació.

Feu clic per veure les observacions i els pronòstics meteorològics.

Per canviar el mapa: feu clic els botons verds amb una creu de color negre per apropar; al botó verd amb un guió per allunyar la imatge; o en les fletxes verdes per a mapes adjacents.


METAR-TAF: